Time;durP1;ratioP1;P1;durP2;ratioP2;P2;SDS_P1;SDS_P2;PMS_P1;PMS_P2;Temp;Humidity;BMP_temperature;BMP_pressure;BME280_temperature;BME280_humidity;BME280_pressure;Samples;Min_cycle;Max_cycle;Signal;HPM_P1;HPM_P2
2023/09/26 00:00:56;;;;;;;9.00;6.35;;;;;;;20.12;73.57;102115.94;5024786;27;96740;-75
2023/09/26 00:03:23;;;;;;;9.48;6.70;;;;;;;19.88;74.62;102124.34;5025692;27;97676;-75
2023/09/26 00:05:49;;;;;;;8.57;6.60;;;;;;;20.16;73.24;102115.69;5026031;27;99093;-74
2023/09/26 00:08:16;;;;;;;8.82;6.53;;;;;;;20.08;73.44;102112.56;5026277;27;99317;-74
2023/09/26 00:10:42;;;;;;;10.25;6.68;;;;;;;20.03;73.96;102113.75;5017087;27;97046;-74
2023/09/26 00:13:10;;;;;;;7.70;6.45;;;;;;;19.90;75.11;102114.38;5025810;27;97302;-74
2023/09/26 00:15:36;;;;;;;7.95;5.93;;;;;;;20.05;74.04;102112.72;5027526;28;99462;-74
2023/09/26 00:18:02;;;;;;;9.98;7.55;;;;;;;19.80;74.77;102112.28;5026527;27;99086;-74
2023/09/26 00:20:30;;;;;;;11.15;6.93;;;;;;;19.79;75.38;102111.41;5025999;27;98837;-74
2023/09/26 00:22:57;;;;;;;11.18;7.47;;;;;;;19.74;75.58;102107.25;5028229;28;96854;-74
2023/09/26 00:25:24;;;;;;;12.18;6.72;;;;;;;19.85;75.26;102103.03;5026630;27;98933;-75
2023/09/26 00:27:52;;;;;;;13.70;7.18;;;;;;;19.93;75.15;102102.66;5027192;27;98864;-75
2023/09/26 00:30:20;;;;;;;10.68;7.32;;;;;;;19.93;75.11;102101.78;5026215;27;97084;-75
2023/09/26 00:32:47;;;;;;;8.50;7.13;;;;;;;19.85;75.64;102102.19;5029249;27;96782;-74
2023/09/26 00:35:13;;;;;;;8.82;7.03;;;;;;;19.93;74.83;102097.28;5030878;28;101857;-74
2023/09/26 00:37:41;;;;;;;7.63;6.82;;;;;;;19.85;75.58;102099.50;5028988;27;99182;-74
2023/09/26 00:40:12;;;;;;;9.77;7.43;;;;;;;19.77;76.19;102099.91;5029243;27;99061;-74
2023/09/26 00:42:38;;;;;;;7.85;7.07;;;;;;;19.76;76.37;102099.97;5029405;27;96917;-74
2023/09/26 00:45:06;;;;;;;9.75;7.32;;;;;;;19.79;76.02;102098.00;5030835;27;101544;-74
2023/09/26 00:47:35;;;;;;;10.27;7.00;;;;;;;19.83;75.91;102098.69;5030070;27;99396;-76
2023/09/26 00:50:03;;;;;;;10.45;7.15;;;;;;;19.68;76.41;102100.41;5025956;27;97090;-75
2023/09/26 00:52:30;;;;;;;13.52;7.40;;;;;;;19.62;76.71;102102.53;5028048;27;96783;-75
2023/09/26 00:54:58;;;;;;;10.32;6.93;;;;;;;19.61;76.58;102098.09;5030078;27;99216;-75
2023/09/26 00:57:25;;;;;;;7.80;7.00;;;;;;;19.60;76.68;102110.63;5030680;27;99261;-76
2023/09/26 00:59:51;;;;;;;11.63;7.70;;;;;;;19.62;76.66;102108.75;5030955;27;96668;-75
2023/09/26 01:02:18;;;;;;;11.40;8.10;;;;;;;19.55;77.08;102101.97;5030781;27;96739;-75
2023/09/26 01:04:45;;;;;;;13.68;7.15;;;;;;;19.69;77.01;102093.22;5029787;27;98966;-75
2023/09/26 01:07:13;;;;;;;10.32;7.80;;;;;;;19.63;76.95;102101.56;5026318;27;98184;-75
2023/09/26 01:09:40;;;;;;;9.88;7.50;;;;;;;19.53;77.42;102098.50;5030261;27;96763;-75
2023/09/26 01:12:08;;;;;;;13.85;8.07;;;;;;;19.54;77.60;102091.31;5029865;27;96848;-75
2023/09/26 01:14:35;;;;;;;9.68;7.32;;;;;;;19.77;76.33;102094.53;5029481;27;97914;-74
2023/09/26 01:17:01;;;;;;;9.20;7.40;;;;;;;19.53;77.32;102092.25;5029736;27;100393;-75
2023/09/26 01:19:27;;;;;;;9.82;8.00;;;;;;;19.71;77.05;102083.25;5029266;27;97051;-74
2023/09/26 01:21:55;;;;;;;11.13;8.02;;;;;;;19.84;76.15;102081.66;5025264;27;97330;-74
2023/09/26 01:24:23;;;;;;;11.00;7.60;;;;;;;19.70;76.26;102089.56;5029713;27;99435;-74
2023/09/26 01:26:49;;;;;;;11.38;8.32;;;;;;;19.71;76.76;102088.63;5029380;27;98792;-73
2023/09/26 01:29:16;;;;;;;11.00;7.88;;;;;;;19.67;76.79;102089.75;5029987;27;96801;-74
2023/09/26 01:31:42;;;;;;;10.48;7.82;;;;;;;19.64;76.82;102088.06;5025792;27;98764;-74
2023/09/26 01:34:08;;;;;;;15.65;8.13;;;;;;;19.75;76.25;102085.72;5029643;27;99066;-75
2023/09/26 01:36:35;;;;;;;11.45;8.60;;;;;;;19.69;76.47;102080.66;5028039;27;102392;-75
2023/09/26 01:39:01;;;;;;;10.07;8.93;;;;;;;19.63;76.87;102089.00;5030189;27;96815;-74
2023/09/26 01:41:29;;;;;;;12.55;9.27;;;;;;;19.49;77.25;102089.72;5019649;27;99852;-74
2023/09/26 01:43:56;;;;;;;11.63;8.82;;;;;;;19.53;77.08;102082.41;5029532;27;98976;-74
2023/09/26 01:46:22;;;;;;;10.15;8.15;;;;;;;19.52;77.39;102080.66;5026185;27;98870;-75
2023/09/26 01:48:49;;;;;;;13.82;9.90;;;;;;;19.62;76.89;102081.06;5019332;27;97676;-75
2023/09/26 01:51:16;;;;;;;11.60;9.45;;;;;;;19.56;76.85;102081.41;5026456;27;96820;-75
2023/09/26 01:53:42;;;;;;;12.45;8.88;;;;;;;19.48;76.94;102079.09;5024170;27;99047;-75
2023/09/26 01:56:09;;;;;;;12.93;9.25;;;;;;;19.86;75.67;102075.28;5030348;27;97778;-76
2023/09/26 01:58:36;;;;;;;11.13;8.82;;;;;;;19.63;76.03;102075.59;5028669;27;96830;-75
2023/09/26 02:01:03;;;;;;;10.32;8.93;;;;;;;19.68;76.32;102070.03;5029700;27;97332;-75
2023/09/26 02:03:29;;;;;;;13.90;9.52;;;;;;;19.73;75.78;102071.50;5022615;27;98893;-74
2023/09/26 02:05:57;;;;;;;12.23;9.10;;;;;;;19.59;76.65;102066.00;5028547;27;99590;-74
2023/09/26 02:08:23;;;;;;;13.45;8.82;;;;;;;19.48;77.13;102065.72;5020793;27;100079;-74
2023/09/26 02:10:50;;;;;;;12.27;8.77;;;;;;;19.68;76.44;102068.22;5029548;27;97037;-74
2023/09/26 02:13:16;;;;;;;12.95;8.90;;;;;;;19.51;77.04;102068.22;5027082;27;99475;-76
2023/09/26 02:15:47;;;;;;;10.05;8.93;;;;;;;19.54;77.37;102072.56;5030335;27;100993;-75
2023/09/26 02:18:13;;;;;;;11.27;8.57;;;;;;;19.27;77.88;102073.00;5029939;27;96799;-75
2023/09/26 02:20:40;;;;;;;11.98;8.88;;;;;;;19.34;77.85;102079.78;5021028;27;96815;-75
2023/09/26 02:23:06;;;;;;;13.25;8.88;;;;;;;19.50;77.44;102074.50;5028319;27;99178;-75
2023/09/26 02:25:32;;;;;;;20.58;9.98;;;;;;;19.43;77.65;102075.75;5029967;28;99183;-75
2023/09/26 02:27:59;;;;;;;11.50;9.13;;;;;;;19.44;77.31;102081.03;5028531;27;97054;-75
2023/09/26 02:30:28;;;;;;;11.32;8.80;;;;;;;19.46;77.37;102071.13;5029269;27;96819;-75
2023/09/26 02:32:56;;;;;;;14.45;8.82;;;;;;;19.41;77.11;102075.84;5027400;27;99040;-75
2023/09/26 02:35:22;;;;;;;16.02;8.77;;;;;;;19.28;77.82;102079.22;5028649;27;98771;-75
2023/09/26 02:37:49;;;;;;;13.30;8.82;;;;;;;19.34;77.52;102076.22;5028237;27;96728;-75
2023/09/26 02:40:15;;;;;;;13.25;8.88;;;;;;;19.15;78.34;102073.63;5029935;27;97130;-74
2023/09/26 02:42:43;;;;;;;11.77;8.88;;;;;;;19.08;79.28;102075.75;5029387;28;98973;-75
2023/09/26 02:45:11;;;;;;;13.98;9.27;;;;;;;19.17;78.90;102074.38;5029146;28;98152;-75
2023/09/26 02:47:38;;;;;;;12.27;9.02;;;;;;;19.12;79.07;102073.75;5025886;27;96788;-74
2023/09/26 02:50:07;;;;;;;11.90;9.10;;;;;;;19.07;79.30;102073.13;5033433;27;97756;-74
2023/09/26 02:52:34;;;;;;;10.70;8.98;;;;;;;18.91;79.96;102070.34;5031924;27;98182;-73
2023/09/26 02:55:02;;;;;;;13.48;9.45;;;;;;;19.08;79.41;102077.53;5030771;27;98432;-74
2023/09/26 02:57:29;;;;;;;11.02;9.05;;;;;;;19.05;79.30;102081.22;5027118;27;96817;-75
2023/09/26 02:59:55;;;;;;;12.48;9.75;;;;;;;18.93;79.79;102086.34;5027721;27;96813;-74
2023/09/26 03:02:21;;;;;;;14.90;9.43;;;;;;;19.06;79.08;102077.63;5027902;27;101807;-74
2023/09/26 03:04:48;;;;;;;12.07;8.93;;;;;;;18.97;79.54;102075.38;5028955;28;97108;-75
2023/09/26 03:07:16;;;;;;;13.60;9.32;;;;;;;18.99;79.34;102092.25;5025384;27;96799;-75
2023/09/26 03:09:43;;;;;;;14.05;10.52;;;;;;;18.95;79.83;102087.13;5028940;28;96777;-75
2023/09/26 03:12:09;;;;;;;12.93;9.38;;;;;;;19.06;79.32;102082.97;5028883;27;99261;-74
2023/09/26 03:14:36;;;;;;;12.80;9.82;;;;;;;19.01;79.07;102081.47;5029077;27;99114;-74
2023/09/26 03:17:05;;;;;;;13.20;10.55;;;;;;;19.22;78.28;102084.91;5029070;27;97864;-74
2023/09/26 03:19:31;;;;;;;13.50;10.15;;;;;;;19.21;78.18;102081.34;5027625;27;97256;-75
2023/09/26 03:21:58;;;;;;;16.08;10.52;;;;;;;18.90;79.04;102081.16;5027759;27;97889;-75
2023/09/26 03:24:26;;;;;;;14.15;10.23;;;;;;;19.06;78.87;102077.63;5026150;27;100237;-74
2023/09/26 03:26:52;;;;;;;13.85;10.82;;;;;;;19.27;77.84;102075.69;5028533;27;96888;-74
2023/09/26 03:29:19;;;;;;;14.38;10.57;;;;;;;19.31;77.41;102077.25;5028988;27;96828;-74
2023/09/26 03:31:45;;;;;;;15.65;10.77;;;;;;;19.18;77.42;102072.56;5028107;27;99271;-74
2023/09/26 03:34:12;;;;;;;17.55;10.98;;;;;;;19.44;77.05;102072.13;5027303;27;99419;-75
2023/09/26 03:36:38;;;;;;;12.13;10.85;;;;;;;19.30;77.21;102063.91;5026133;27;96933;-74
2023/09/26 03:39:05;;;;;;;17.00;11.43;;;;;;;19.19;77.76;102067.16;5021345;27;96970;-74
2023/09/26 03:41:33;;;;;;;20.73;11.80;;;;;;;19.07;78.25;102067.78;5025397;27;99211;-75
2023/09/26 03:43:59;;;;;;;13.02;11.15;;;;;;;19.08;78.49;102056.13;5023412;27;97765;-75
2023/09/26 03:46:26;;;;;;;19.80;11.52;;;;;;;19.02;79.23;102059.09;5025375;27;97524;-75
2023/09/26 03:48:52;;;;;;;13.95;10.68;;;;;;;19.03;79.08;102059.00;5027201;27;96822;-75
2023/09/26 03:51:20;;;;;;;14.85;11.52;;;;;;;18.97;79.71;102055.78;5019157;27;99209;-76
2023/09/26 03:53:52;;;;;;;19.92;11.55;;;;;;;18.87;80.04;102060.72;5025244;27;100458;-76
2023/09/26 03:56:19;;;;;;;14.23;11.25;;;;;;;18.81;79.80;102050.31;5027858;27;96818;-76
2023/09/26 03:58:49;;;;;;;13.93;11.45;;;;;;;18.84;79.67;102060.84;5026744;28;96781;-76
2023/09/26 04:01:19;;;;;;;14.50;11.25;;;;;;;18.78;80.19;102054.94;5024184;27;97952;-76
2023/09/26 04:03:48;;;;;;;16.67;11.55;;;;;;;18.77;79.93;102046.06;5027691;28;97742;-76
2023/09/26 04:06:18;;;;;;;14.30;11.60;;;;;;;18.87;79.74;102047.34;5026633;27;98411;-76
2023/09/26 04:08:46;;;;;;;14.57;11.23;;;;;;;19.01;79.15;102052.00;5030809;27;98562;-76
2023/09/26 04:11:14;;;;;;;13.70;11.13;;;;;;;18.90;79.56;102049.88;5031563;27;98088;-75
2023/09/26 04:13:42;;;;;;;13.95;11.55;;;;;;;19.03;78.69;102050.13;5028725;27;98102;-77
2023/09/26 04:16:14;;;;;;;14.77;11.00;;;;;;;19.00;78.77;102044.91;5031915;27;96824;-78
2023/09/26 04:18:41;;;;;;;16.17;12.20;;;;;;;18.85;79.83;102051.03;5029929;27;96833;-75
2023/09/26 04:21:08;;;;;;;18.48;11.65;;;;;;;18.94;79.05;102045.22;5030346;27;99122;-75
2023/09/26 04:23:34;;;;;;;14.43;12.57;;;;;;;18.82;79.59;102051.19;5028463;27;101088;-75
2023/09/26 04:26:00;;;;;;;16.92;12.45;;;;;;;18.82;79.46;102043.16;5029359;28;96923;-74
2023/09/26 04:28:28;;;;;;;18.13;12.90;;;;;;;18.66;80.50;102043.91;5031224;27;97113;-75
2023/09/26 04:30:54;;;;;;;19.23;11.38;;;;;;;18.93;79.40;102039.00;5030874;27;99626;-75
2023/09/26 04:33:22;;;;;;;18.20;13.23;;;;;;;18.86;80.06;102039.38;5029969;27;97528;-74
2023/09/26 04:35:55;;;;;;;16.77;12.60;;;;;;;19.03;79.03;102039.41;5023605;27;96745;-74
2023/09/26 04:38:22;;;;;;;18.52;13.23;;;;;;;19.06;78.90;102039.25;5021964;27;96841;-74
2023/09/26 04:40:48;;;;;;;19.77;13.57;;;;;;;19.00;78.92;102036.88;5029853;27;99248;-75
2023/09/26 04:43:15;;;;;;;19.65;13.57;;;;;;;18.76;79.91;102038.09;5031241;28;99186;-75
2023/09/26 04:45:41;;;;;;;27.52;14.23;;;;;;;18.93;80.00;102036.31;5030635;27;96727;-74
2023/09/26 04:48:08;;;;;;;21.48;14.10;;;;;;;19.12;79.27;102044.28;5025648;28;96863;-74
2023/09/26 04:50:35;;;;;;;19.95;14.43;;;;;;;18.89;80.22;102031.19;5025530;27;99208;-74
2023/09/26 04:53:02;;;;;;;17.25;14.40;;;;;;;19.01;80.08;102033.25;5027471;27;99283;-74
2023/09/26 04:55:28;;;;;;;19.75;14.32;;;;;;;18.89;80.46;102033.88;5029124;27;96788;-74
2023/09/26 04:57:55;;;;;;;19.75;14.65;;;;;;;18.94;80.42;102027.34;5030657;27;96890;-74
2023/09/26 05:00:21;;;;;;;19.58;14.63;;;;;;;19.03;80.29;102034.91;5026076;27;99332;-75
2023/09/26 05:02:52;;;;;;;19.60;14.27;;;;;;;18.90;80.31;102033.81;5029675;27;98007;-74
2023/09/26 05:05:19;;;;;;;21.67;14.20;;;;;;;18.99;80.11;102032.44;5031282;28;96774;-75
2023/09/26 05:07:48;;;;;;;24.95;14.70;;;;;;;19.09;79.46;102041.78;5028306;27;97050;-75
2023/09/26 05:10:19;;;;;;;20.60;15.43;;;;;;;19.00;80.04;102039.56;5029260;27;98861;-75
2023/09/26 05:12:46;;;;;;;23.77;14.75;;;;;;;19.27;78.87;102034.59;5029064;27;99465;-77
2023/09/26 05:15:14;;;;;;;23.50;14.70;;;;;;;19.09;79.24;102023.91;5030035;27;97324;-75
2023/09/26 05:17:48;;;;;;;24.98;15.18;;;;;;;19.16;78.96;102034.31;5027753;27;96861;-75
2023/09/26 05:20:18;;;;;;;30.00;16.08;;;;;;;18.96;80.38;102027.28;5028700;27;99786;-76
2023/09/26 05:22:48;;;;;;;25.45;15.07;;;;;;;19.19;79.25;102028.75;5040884;27;99163;-76
2023/09/26 05:25:15;;;;;;;22.70;14.60;;;;;;;19.29;78.61;102027.38;5030656;27;96850;-75
2023/09/26 05:27:43;;;;;;;21.17;15.73;;;;;;;18.84;80.50;102028.72;5043247;27;96814;-75
2023/09/26 05:30:14;;;;;;;23.02;14.55;;;;;;;19.15;79.45;102027.19;5035274;27;97694;-75
2023/09/26 05:32:49;;;;;;;25.20;15.82;;;;;;;19.31;78.53;102023.63;5028208;27;98982;-76
2023/09/26 05:35:16;;;;;;;22.15;15.73;;;;;;;18.93;79.94;102030.09;5040238;27;97142;-75
2023/09/26 05:37:49;;;;;;;16.85;14.20;;;;;;;19.25;78.91;102029.31;5030509;27;96788;-74
2023/09/26 05:40:16;;;;;;;22.63;15.32;;;;;;;18.96;80.31;102027.28;5029264;27;97835;-74
2023/09/26 05:42:43;;;;;;;22.15;15.98;;;;;;;19.21;79.62;102038.47;5027071;27;100890;-74
2023/09/26 05:45:11;;;;;;;23.42;16.65;;;;;;;19.03;79.65;102039.41;5029617;27;96968;-74
2023/09/26 05:47:39;;;;;;;25.23;13.95;;;;;;;19.36;78.83;102037.66;5028317;27;98482;-74
2023/09/26 05:50:06;;;;;;;26.17;15.57;;;;;;;19.48;77.96;102037.09;5025699;27;98936;-75
2023/09/26 05:52:33;;;;;;;19.02;14.63;;;;;;;19.44;78.01;102038.13;5026325;27;101074;-75
2023/09/26 05:55:00;;;;;;;25.13;15.45;;;;;;;19.75;76.99;102033.91;5029466;27;99123;-76
2023/09/26 05:57:27;;;;;;;26.80;15.98;;;;;;;19.75;76.77;102037.44;5025646;27;96902;-75
2023/09/26 05:59:53;;;;;;;22.50;16.33;;;;;;;19.35;77.98;102035.97;5020033;27;97926;-75
2023/09/26 06:02:20;;;;;;;26.23;15.38;;;;;;;19.92;76.22;102046.38;5027455;27;98952;-75
2023/09/26 06:04:46;;;;;;;22.92;15.80;;;;;;;19.80;76.62;102046.09;5028699;27;97162;-75
2023/09/26 06:07:14;;;;;;;26.83;15.02;;;;;;;19.85;77.04;102051.22;5027224;27;97025;-75
2023/09/26 06:09:40;;;;;;;23.08;15.60;;;;;;;19.77;77.41;102045.38;5026555;27;99250;-75
2023/09/26 06:12:08;;;;;;;23.52;15.57;;;;;;;19.74;77.38;102045.56;5032931;27;100057;-75
2023/09/26 06:14:35;;;;;;;18.55;15.05;;;;;;;20.10;75.87;102056.97;5028940;27;96933;-74
2023/09/26 06:17:01;;;;;;;22.65;14.48;;;;;;;20.24;75.22;102054.41;5025441;27;97670;-74
2023/09/26 06:19:28;;;;;;;24.23;15.23;;;;;;;20.02;76.00;102053.84;5028161;27;99296;-75
2023/09/26 06:21:54;;;;;;;24.67;15.57;;;;;;;20.22;75.88;102058.13;5023244;27;99503;-74
2023/09/26 06:24:21;;;;;;;24.52;16.05;;;;;;;20.30;74.65;102058.56;5023468;27;97296;-75
2023/09/26 06:26:47;;;;;;;21.13;15.07;;;;;;;20.14;75.39;102058.56;5022155;27;97896;-74
2023/09/26 06:29:16;;;;;;;25.90;15.50;;;;;;;20.38;74.55;102058.19;5027630;27;102508;-75
2023/09/26 06:31:42;;;;;;;28.40;15.82;;;;;;;20.23;75.17;102062.53;5032983;27;100779;-74
2023/09/26 06:34:12;;;;;;;20.17;15.60;;;;;;;20.47;73.77;102063.91;5040979;27;97243;-75
2023/09/26 06:36:38;;;;;;;23.92;15.40;;;;;;;20.45;74.09;102057.75;5029441;27;96868;-76
2023/09/26 06:39:05;;;;;;;28.77;15.63;;;;;;;20.67;73.17;102058.28;5036035;27;101628;-75
2023/09/26 06:41:31;;;;;;;18.02;14.90;;;;;;;20.88;72.30;102050.78;5026330;27;98908;-75
2023/09/26 06:43:58;;;;;;;20.55;14.90;;;;;;;21.06;71.47;102044.38;5029205;27;96853;-75
2023/09/26 06:46:25;;;;;;;21.02;15.75;;;;;;;21.02;71.41;102052.69;5025994;27;97185;-75
2023/09/26 06:48:53;;;;;;;30.65;15.45;;;;;;;20.97;71.73;102049.41;5028701;27;99377;-75
2023/09/26 06:51:19;;;;;;;25.35;15.70;;;;;;;21.06;72.08;102054.25;5029050;27;97768;-74
2023/09/26 06:53:45;;;;;;;19.52;14.30;;;;;;;20.85;72.32;102045.63;5027450;27;97105;-75
2023/09/26 06:56:12;;;;;;;23.80;15.30;;;;;;;21.12;71.23;102044.94;5028271;27;97081;-75
2023/09/26 06:58:39;;;;;;;22.65;15.73;;;;;;;21.41;70.04;102047.66;5026976;27;97768;-75
2023/09/26 07:01:13;;;;;;;19.08;14.65;;;;;;;21.17;71.07;102045.56;5020232;27;98907;-76
2023/09/26 07:03:42;;;;;;;20.48;14.85;;;;;;;21.03;71.51;102043.66;5024269;27;96767;-74
2023/09/26 07:06:09;;;;;;;22.02;15.57;;;;;;;21.40;70.00;102042.34;5027753;27;98638;-75
2023/09/26 07:08:36;;;;;;;22.20;15.10;;;;;;;21.91;68.12;102037.44;5028510;27;98368;-75
2023/09/26 07:11:03;;;;;;;28.35;15.50;;;;;;;21.63;69.34;102036.47;5021514;27;99029;-75
2023/09/26 07:13:34;;;;;;;21.45;15.73;;;;;;;21.97;68.28;102045.16;5023260;27;97160;-74
2023/09/26 07:16:03;;;;;;;18.60;14.43;;;;;;;21.90;68.06;102041.09;5020785;27;96894;-75
2023/09/26 07:18:30;;;;;;;28.35;14.70;;;;;;;22.13;66.66;102045.91;5032361;27;101660;-75
2023/09/26 07:20:59;;;;;;;20.95;15.25;;;;;;;22.17;66.88;102034.00;5029799;27;99086;-76
2023/09/26 07:23:26;;;;;;;20.77;15.93;;;;;;;22.31;66.44;102038.50;5029150;27;97243;-76
2023/09/26 07:25:53;;;;;;;23.08;15.05;;;;;;;22.27;66.47;102041.38;5026657;27;96973;-75
2023/09/26 07:28:19;;;;;;;26.15;16.42;;;;;;;22.44;65.98;102045.72;5026979;27;98862;-75
2023/09/26 07:30:47;;;;;;;30.80;16.20;;;;;;;22.64;65.03;102039.84;5030651;27;98711;-75
2023/09/26 07:33:17;;;;;;;21.20;15.82;;;;;;;22.67;65.03;102045.06;5030192;27;97901;-76
2023/09/26 07:35:56;;;;;;;27.27;16.23;;;;;;;22.85;64.17;102044.81;5026310;27;97144;-75
2023/09/26 07:38:24;;;;;;;25.02;16.35;;;;;;;22.84;63.63;102041.25;5021498;27;98569;-74
2023/09/26 07:40:51;;;;;;;24.50;16.52;;;;;;;22.89;63.95;102052.63;5024171;27;98860;-76
2023/09/26 07:43:17;;;;;;;25.77;16.85;;;;;;;22.88;64.43;102047.34;5028295;27;96823;-75
2023/09/26 07:45:44;;;;;;;21.90;16.02;;;;;;;23.38;62.50;102042.06;5032435;27;97094;-75
2023/09/26 07:48:10;;;;;;;25.70;15.65;;;;;;;23.14;63.21;102043.75;5029468;27;98878;-75
2023/09/26 07:50:36;;;;;;;23.95;16.67;;;;;;;23.53;62.24;102047.41;5038545;27;101506;-75
2023/09/26 07:53:03;;;;;;;23.35;16.65;;;;;;;;;;5025928;27;98152;-75
2023/09/26 07:55:31;;;;;;;26.27;15.77;;;;;;;24.24;60.09;102053.13;5025524;27;96874;-75
2023/09/26 07:57:57;;;;;;;31.02;16.67;;;;;;;24.50;58.46;102049.41;5034370;27;98739;-75
2023/09/26 08:00:24;;;;;;;24.85;15.60;;;;;;;24.83;57.25;102051.44;5035658;27;98710;-75
2023/09/26 08:02:51;;;;;;;20.67;14.95;;;;;;;24.58;57.47;102052.41;5027033;27;98358;-75
2023/09/26 08:05:17;;;;;;;18.70;14.57;;;;;;;24.53;57.84;102049.19;5033586;27;97131;-76
2023/09/26 08:07:44;;;;;;;25.23;15.13;;;;;;;24.33;58.55;102051.63;5039795;27;98161;-74
2023/09/26 08:10:10;;;;;;;25.52;16.15;;;;;;;23.88;59.89;102051.22;5031887;27;99189;-75
2023/09/26 08:12:39;;;;;;;24.20;15.45;;;;;;;24.39;58.57;102049.34;5040832;27;97090;-74
2023/09/26 08:15:07;;;;;;;18.92;15.30;;;;;;;24.33;57.78;102054.31;5029853;27;98747;-76
2023/09/26 08:17:35;;;;;;;27.48;14.48;;;;;;;24.64;57.71;102045.69;5031911;27;99249;-76
2023/09/26 08:20:01;;;;;;;19.30;15.18;;;;;;;24.63;57.80;102050.22;5030927;27;101154;-76
2023/09/26 08:22:28;;;;;;;20.08;14.18;;;;;;;24.58;57.07;102049.69;5029867;27;98076;-76
2023/09/26 08:24:54;;;;;;;24.70;15.27;;;;;;;24.68;57.57;102052.56;5029888;27;98494;-76
2023/09/26 08:27:21;;;;;;;25.15;15.85;;;;;;;24.34;57.96;102042.53;5028888;27;99318;-75
2023/09/26 08:29:48;;;;;;;23.77;14.63;;;;;;;24.76;57.16;102043.91;5034241;27;99208;-75
2023/09/26 08:32:15;;;;;;;24.88;14.93;;;;;;;25.05;56.29;102039.91;5026804;27;97794;-75
2023/09/26 08:34:41;;;;;;;21.65;14.02;;;;;;;25.11;55.86;102033.16;5033132;27;98628;-75
2023/09/26 08:37:08;;;;;;;20.02;13.95;;;;;;;24.88;56.28;102042.97;5030353;27;99071;-76
2023/09/26 08:39:34;;;;;;;23.42;14.98;;;;;;;24.94;56.33;102040.69;5027685;27;98204;-76
2023/09/26 08:42:01;;;;;;;17.88;14.75;;;;;;;24.92;56.02;102045.38;5031888;27;96948;-76
2023/09/26 08:44:28;;;;;;;21.48;13.88;;;;;;;24.65;56.75;102044.72;5032550;27;98107;-76
2023/09/26 08:46:57;;;;;;;22.90;13.13;;;;;;;24.83;56.31;102040.63;5032054;27;98217;-75
2023/09/26 08:49:23;;;;;;;22.73;13.80;;;;;;;25.00;55.65;102040.25;5034169;27;99717;-75
2023/09/26 08:51:50;;;;;;;20.35;13.23;;;;;;;25.22;54.94;102044.00;5026731;27;96889;-75
2023/09/26 08:54:16;;;;;;;20.73;13.70;;;;;;;25.11;55.09;102044.84;5031868;27;97108;-75
2023/09/26 08:56:45;;;;;;;19.80;14.13;;;;;;;24.93;54.95;102036.31;5025467;27;98490;-76
2023/09/26 08:59:14;;;;;;;20.05;14.38;;;;;;;25.04;54.84;102030.06;5028315;27;98867;-75
2023/09/26 09:01:41;;;;;;;20.75;12.90;;;;;;;25.24;54.23;102040.22;5027378;27;96819;-75
2023/09/26 09:04:09;;;;;;;18.65;12.57;;;;;;;25.21;53.96;102034.16;5023345;27;97243;-75
2023/09/26 09:06:36;;;;;;;24.83;13.40;;;;;;;25.25;54.35;102030.28;5030449;27;98815;-75
2023/09/26 09:09:10;;;;;;;15.10;12.43;;;;;;;25.17;54.26;102028.16;5033815;27;98774;-75
2023/09/26 09:11:36;;;;;;;19.90;12.82;;;;;;;25.19;54.59;102028.91;5025775;27;96947;-76
2023/09/26 09:14:02;;;;;;;13.82;11.85;;;;;;;25.48;53.83;102025.75;5024807;27;96986;-75
2023/09/26 09:16:29;;;;;;;20.90;13.07;;;;;;;25.21;54.73;102026.06;5027696;27;99129;-76
2023/09/26 09:18:58;;;;;;;16.08;12.95;;;;;;;25.71;53.21;102023.03;5026030;27;98990;-75
2023/09/26 09:21:30;;;;;;;19.05;12.30;;;;;;;25.47;53.56;102030.31;5026885;27;97405;-76
2023/09/26 09:23:59;;;;;;;17.13;11.40;;;;;;;25.90;53.05;102022.41;5025745;27;98699;-76
2023/09/26 09:26:29;;;;;;;17.23;11.70;;;;;;;25.55;53.35;102021.59;5028267;27;97783;-75
2023/09/26 09:28:58;;;;;;;18.17;9.55;;;;;;;25.77;52.58;102019.81;5034132;27;99236;-75
2023/09/26 09:31:27;;;;;;;15.90;10.35;;;;;;;25.62;53.06;102017.47;5024203;27;96927;-75
2023/09/26 09:33:55;;;;;;;18.33;10.45;;;;;;;25.71;52.70;102012.19;5026179;27;96979;-75
2023/09/26 09:36:22;;;;;;;18.95;11.10;;;;;;;25.56;53.03;102009.78;5027218;27;99390;-76
2023/09/26 09:38:49;;;;;;;12.70;10.13;;;;;;;25.76;53.14;102019.94;5025956;27;97774;-76
2023/09/26 09:41:16;;;;;;;15.68;10.73;;;;;;;26.20;51.77;102009.09;5024631;27;98625;-76
2023/09/26 09:43:42;;;;;;;16.42;10.27;;;;;;;26.07;51.63;102002.94;5024452;27;96974;-75
2023/09/26 09:46:10;;;;;;;15.35;9.50;;;;;;;26.10;51.56;102002.72;5028707;27;99216;-75
2023/09/26 09:48:42;;;;;;;11.45;8.73;;;;;;;26.03;51.83;102004.19;5028857;27;98824;-75
2023/09/26 09:51:11;;;;;;;14.77;9.75;;;;;;;26.29;50.65;102004.81;5024234;27;97838;-76
2023/09/26 09:53:38;;;;;;;17.45;8.93;;;;;;;26.18;50.88;101997.53;5027462;27;97696;-75
2023/09/26 09:56:08;;;;;;;12.23;7.88;;;;;;;26.26;50.04;101999.63;5025035;27;99636;-76
2023/09/26 09:58:39;;;;;;;13.68;8.35;;;;;;;26.24;49.62;101993.50;5029074;27;99112;-75
2023/09/26 10:01:06;;;;;;;19.45;9.60;;;;;;;26.38;49.89;101995.94;5028382;27;97150;-75
2023/09/26 10:03:34;;;;;;;13.80;8.25;;;;;;;26.36;49.12;101995.19;5023423;27;97229;-76
2023/09/26 10:06:02;;;;;;;12.10;7.78;;;;;;;26.23;49.85;101989.03;5022967;27;99443;-75
2023/09/26 10:08:29;;;;;;;14.85;8.35;;;;;;;26.33;50.18;101981.88;5022465;27;98890;-75
2023/09/26 10:10:57;;;;;;;11.65;7.00;;;;;;;26.29;50.08;101982.28;5027039;27;97523;-76
2023/09/26 10:13:24;;;;;;;14.25;7.07;;;;;;;26.01;50.61;101975.50;5027585;27;97665;-76
2023/09/26 10:16:06;;;;;;;11.98;7.45;;;;;;;26.22;50.76;101979.19;5030885;27;101481;-76
2023/09/26 10:18:34;;;;;;;15.95;7.72;;;;;;;26.29;50.26;101975.00;5027193;27;98844;-75
2023/09/26 10:21:00;;;;;;;12.13;7.30;;;;;;;26.04;50.59;101975.28;5023648;27;96839;-75
2023/09/26 10:23:26;;;;;;;11.73;7.32;;;;;;;26.01;50.71;101972.78;5024187;27;97337;-75
2023/09/26 10:25:55;;;;;;;7.50;6.40;;;;;;;26.01;49.85;101973.66;5024957;27;98127;-76
2023/09/26 10:28:22;;;;;;;9.18;5.63;;;;;;;26.06;50.03;101967.84;5030010;27;98793;-76
2023/09/26 10:30:55;;;;;;;10.52;7.07;;;;;;;26.20;50.60;101970.31;5023259;27;98495;-74
2023/09/26 10:33:21;;;;;;;10.13;7.10;;;;;;;26.22;50.50;101956.63;5028425;27;97705;-75
2023/09/26 10:35:47;;;;;;;8.38;6.78;;;;;;;26.34;49.47;101964.66;5025871;27;97957;-74
2023/09/26 10:38:18;;;;;;;11.63;5.70;;;;;;;26.28;49.25;101958.88;5029747;27;101052;-75
2023/09/26 10:40:45;;;;;;;9.20;5.80;;;;;;;26.32;48.78;101952.22;5024640;27;97486;-76
2023/09/26 10:43:11;;;;;;;8.32;6.43;;;;;;;26.22;49.77;101960.22;5029363;27;97103;-76
2023/09/26 10:45:42;;;;;;;9.20;6.68;;;;;;;26.48;49.25;101952.66;5029902;27;98912;-75
2023/09/26 10:48:09;;;;;;;12.60;7.00;;;;;;;26.44;49.03;101945.78;5030909;27;99170;-75
2023/09/26 10:50:36;;;;;;;9.48;6.88;;;;;;;26.41;48.70;101944.19;5027358;27;96953;-77
2023/09/26 10:53:03;;;;;;;10.35;7.38;;;;;;;26.63;48.50;101950.53;5021648;27;97126;-76
2023/09/26 10:55:29;;;;;;;8.02;5.72;;;;;;;26.48;48.31;101939.97;5027168;27;97742;-76
2023/09/26 10:57:56;;;;;;;12.77;6.75;;;;;;;26.15;49.07;101937.31;5025557;27;101928;-75
2023/09/26 11:00:22;;;;;;;8.13;6.30;;;;;;;26.41;48.75;101933.34;5027464;27;96857;-75
2023/09/26 11:02:49;;;;;;;11.45;6.15;;;;;;;26.17;48.71;101933.50;5029389;27;97199;-76
2023/09/26 11:05:18;;;;;;;11.30;5.78;;;;;;;26.35;49.25;101927.56;5021139;27;99786;-76
2023/09/26 11:07:46;;;;;;;10.80;6.78;;;;;;;26.47;49.41;101929.25;5026242;27;99966;-75
2023/09/26 11:10:14;;;;;;;9.02;5.47;;;;;;;26.54;48.82;101933.19;5024398;27;97767;-76
2023/09/26 11:12:40;;;;;;;10.27;5.88;;;;;;;26.72;49.05;101928.91;5026021;27;96910;-76
2023/09/26 11:15:08;;;;;;;10.48;6.10;;;;;;;26.82;48.43;101931.72;5027702;27;99273;-76